This is the latest recevied weather packets stored in our database for station/object KC8JWT. If no packets are shown the sender has not sent any weather packets the latest 1 day(s).
| Time | Temp. | Humidity | Pressure | Rain* | Wind** | Luminosity | Snow |
|---|---|---|---|---|---|---|---|
| 1778003114 | 25° C | 55% | 1010 hPa | 0 mm | 5.36 m/s, 219° | 482 W/m² | - |
| 1778002810 | 25.56° C | 54% | 1010 hPa | 0 mm | 2.68 m/s, 176° | 550 W/m² | - |
| 1778002507 | 25° C | 54% | 1010.1 hPa | 0 mm | 4.02 m/s, 255° | 619 W/m² | - |
| 1778002204 | 25.56° C | 53% | 1009.8 hPa | 0 mm | 5.81 m/s, 228° | 645 W/m² | - |
| 1778001902 | 25.56° C | 54% | 1009.9 hPa | 0 mm | 4.47 m/s, 14° | 688 W/m² | - |
| 1778001603 | 25° C | 54% | 1009.5 hPa | 0 mm | 3.13 m/s, 243° | 673 W/m² | - |
| 1778001299 | 25° C | 54% | 1009.7 hPa | 0 mm | 4.02 m/s, 219° | 644 W/m² | - |
| 1778000995 | 25.56° C | 56% | 1009.7 hPa | 0 mm | 1.34 m/s, 155° | 723 W/m² | - |
| 1778000692 | 25° C | 53% | 1009.8 hPa | 0 mm | 4.47 m/s, 211° | 765 W/m² | - |
| 1778000388 | 25.56° C | 55% | 1009.7 hPa | 0 mm | 3.13 m/s, 252° | 752 W/m² | - |
| 1778000084 | 25° C | 55% | 1009.9 hPa | 0 mm | 3.13 m/s, 257° | 776 W/m² | - |
| 1777999779 | 25° C | 54% | 1009.9 hPa | 0 mm | 6.71 m/s, 212° | 737 W/m² | - |
| 1777999476 | 25° C | 54% | 1009.9 hPa | 0 mm | 5.36 m/s, 300° | 542 W/m² | - |
| 1777999174 | 25° C | 54% | 1009.9 hPa | 0 mm | 3.58 m/s, 355° | 727 W/m² | - |
| 1777998873 | 25° C | 55% | 1010 hPa | 0 mm | 2.24 m/s, 248° | 681 W/m² | - |
| 1777998572 | 25° C | 55% | 1009.7 hPa | 0 mm | 3.13 m/s, 198° | 724 W/m² | - |
| 1777998267 | 24.44° C | 55% | 1009.9 hPa | 0 mm | 1.79 m/s, 223° | 682 W/m² | - |
| 1777997964 | 24.44° C | 55% | 1010.1 hPa | 0 mm | 3.13 m/s, 266° | 590 W/m² | - |
| 1777997661 | 25° C | 55% | 1009.8 hPa | 0 mm | 2.24 m/s, 279° | 488 W/m² | - |
| 1777997358 | 25° C | 55% | 1009.7 hPa | 0 mm | 3.58 m/s, 294° | 590 W/m² | - |
| 1777997056 | 25.56° C | 56% | 1009.8 hPa | 0 mm | 1.79 m/s, 27° | 551 W/m² | - |
| 1777996752 | 25.56° C | 55% | 1009.9 hPa | 0 mm | 0.89 m/s, 143° | 453 W/m² | - |
| 1777996449 | 26.11° C | 53% | 1009.9 hPa | 0 mm | 4.02 m/s, 215° | 1044 W/m² | - |
| 1777996146 | 25° C | 55% | 1009.7 hPa | 0 mm | 1.34 m/s, 214° | 974 W/m² | - |
| 1777995841 | 25° C | 56% | 1009.8 hPa | 0 mm | 2.68 m/s, 310° | 974 W/m² | - |
* Rain latest hour (hover to see other rain measurements)
** Current wind speed in m/s (hover to see current wind gust speed)